createdAt,value
2022-08-19T00:02:26.717Z,11.68
2022-08-19T00:04:57.038Z,12.45
2022-08-19T00:07:28.417Z,13.57
2022-08-19T00:09:58.543Z,13.45
2022-08-19T00:12:29.155Z,11.77
2022-08-19T00:14:59.700Z,13.40
2022-08-19T00:17:29.722Z,13.18
2022-08-19T00:20:00.461Z,12.80
2022-08-19T00:22:32.483Z,13.15
2022-08-19T00:25:02.805Z,12.27
2022-08-19T00:27:34.283Z,14.48
2022-08-19T00:30:05.555Z,14.60
2022-08-19T00:32:36.363Z,12.30
2022-08-19T00:35:07.389Z,12.73
2022-08-19T00:37:39.083Z,13.65
2022-08-19T00:40:10.385Z,13.20
2022-08-19T00:42:40.217Z,13.00
2022-08-19T00:45:15.875Z,13.55
2022-08-19T00:47:46.595Z,12.43
2022-08-19T00:50:20.632Z,12.80
2022-08-19T00:52:53.078Z,12.73
2022-08-19T00:55:26.151Z,12.80
2022-08-19T00:58:00.349Z,13.13
2022-08-19T01:00:31.941Z,12.50
2022-08-19T01:03:01.795Z,13.57
2022-08-19T01:05:32.099Z,13.10
2022-08-19T01:08:06.799Z,12.73
2022-08-19T01:10:44.155Z,12.85
2022-08-19T01:13:16.380Z,12.75
2022-08-19T01:15:50.102Z,13.23
2022-08-19T01:18:22.368Z,13.32
2022-08-19T01:20:54.208Z,13.48
2022-08-19T01:23:43.408Z,12.02
2022-08-19T01:26:16.491Z,14.18
2022-08-19T01:28:49.680Z,13.35
2022-08-19T01:31:27.117Z,12.85
2022-08-19T01:33:59.159Z,12.25
2022-08-19T01:36:32.923Z,13.10
2022-08-19T01:39:09.981Z,12.60
2022-08-19T01:41:40.030Z,12.68
2022-08-19T01:44:18.501Z,13.15
2022-08-19T01:46:50.369Z,12.73
2022-08-19T01:49:24.050Z,12.75
2022-08-19T01:54:27.805Z,13.52
2022-08-19T01:57:01.531Z,13.10
2022-08-19T01:59:32.676Z,12.63
2022-08-19T02:02:02.757Z,12.55
2022-08-19T02:04:32.553Z,13.15
2022-08-19T02:07:02.802Z,13.10
2022-08-19T02:09:34.655Z,12.82
2022-08-19T02:12:05.906Z,13.20
2022-08-19T02:14:36.287Z,13.35
2022-08-19T02:17:06.732Z,12.32
2022-08-19T02:19:36.628Z,13.90
2022-08-19T02:22:10.979Z,13.40
2022-08-19T02:24:42.434Z,13.57
2022-08-19T02:27:12.555Z,13.05
2022-08-19T02:29:43.057Z,12.65
2022-08-19T02:32:13.081Z,13.65
2022-08-19T02:34:43.652Z,13.15
2022-08-19T02:37:35.091Z,13.57
2022-08-19T02:40:12.492Z,14.98
2022-08-19T02:42:44.106Z,13.98
2022-08-19T02:45:15.035Z,12.75
2022-08-19T02:47:45.024Z,13.50
2022-08-19T02:50:15.654Z,12.90
2022-08-19T02:52:46.411Z,13.70
2022-08-19T02:55:17.843Z,13.07
2022-08-19T02:57:47.791Z,12.70
2022-08-19T03:00:18.664Z,13.95
2022-08-19T03:02:49.791Z,13.43
2022-08-19T03:05:20.747Z,13.10
2022-08-19T03:08:13.298Z,14.95
2022-08-19T03:10:47.934Z,14.73
2022-08-19T03:13:20.144Z,13.38
2022-08-19T03:15:50.734Z,14.63
2022-08-19T03:18:20.621Z,13.77
2022-08-19T03:20:55.612Z,13.40
2022-08-19T03:23:26.033Z,14.07
2022-08-19T03:26:03.811Z,13.57
2022-08-19T03:28:51.365Z,13.73
2022-08-19T03:31:43.900Z,14.00
2022-08-19T03:34:16.788Z,14.20
2022-08-19T03:36:49.275Z,13.88
2022-08-19T03:39:19.556Z,13.48
2022-08-19T03:42:29.200Z,14.10
2022-08-19T03:44:43.354Z,14.82
2022-08-19T03:47:17.081Z,14.73
2022-08-19T03:49:47.338Z,15.07
2022-08-19T03:52:17.321Z,13.68
2022-08-19T03:54:47.178Z,14.55
2022-08-19T03:57:18.550Z,14.80
2022-08-19T03:59:48.606Z,14.35
2022-08-19T04:02:18.496Z,14.23
2022-08-19T04:04:48.692Z,14.57
2022-08-19T04:07:19.163Z,14.38
2022-08-19T04:09:49.297Z,17.75
2022-08-19T04:12:21.825Z,16.58
2022-08-19T04:14:52.393Z,18.50
2022-08-19T04:17:22.350Z,17.77
2022-08-19T04:19:52.390Z,17.50
2022-08-19T04:22:22.360Z,16.50
2022-08-19T04:24:52.269Z,15.63
2022-08-19T04:27:23.569Z,15.90
2022-08-19T04:29:53.570Z,14.43
2022-08-19T04:32:23.687Z,14.98
2022-08-19T04:35:01.208Z,13.43
2022-08-19T04:37:35.014Z,14.98
2022-08-19T04:40:25.340Z,15.35
2022-08-19T04:42:57.423Z,15.38
2022-08-19T04:45:27.482Z,15.52
2022-08-19T04:48:26.490Z,13.43
2022-08-19T04:50:49.265Z,14.80
2022-08-19T04:53:19.080Z,14.15
2022-08-19T04:55:48.959Z,13.18
2022-08-19T04:58:20.507Z,14.63
2022-08-19T05:00:50.620Z,15.45
2022-08-19T05:03:21.346Z,15.52
2022-08-19T05:05:51.385Z,14.65
2022-08-19T05:08:31.362Z,15.15
2022-08-19T05:11:02.377Z,14.45
2022-08-19T05:13:34.128Z,17.08
2022-08-19T05:16:05.911Z,16.60
2022-08-19T05:19:04.516Z,23.55
2022-08-19T05:21:53.642Z,17.08
2022-08-19T05:24:25.217Z,16.45
2022-08-19T05:26:58.958Z,15.68
2022-08-19T05:29:36.419Z,16.17
2022-08-19T05:32:09.809Z,15.23
2022-08-19T05:34:40.576Z,16.30
2022-08-19T05:37:10.701Z,14.23
2022-08-19T05:39:41.436Z,14.90
2022-08-19T05:42:14.142Z,17.20
2022-08-19T05:44:46.187Z,15.00
2022-08-19T05:47:16.940Z,16.02
2022-08-19T05:49:47.996Z,16.30
2022-08-19T05:52:18.864Z,18.80
2022-08-19T05:54:52.067Z,49.58
2022-08-19T05:57:22.194Z,31.08
2022-08-19T05:59:58.048Z,16.95
2022-08-19T06:02:29.580Z,14.10
2022-08-19T06:05:02.538Z,19.88
2022-08-19T06:07:32.607Z,17.08
2022-08-19T06:10:02.690Z,16.00
2022-08-19T06:12:36.050Z,15.45
2022-08-19T06:15:10.923Z,15.30
2022-08-19T06:17:42.740Z,16.33
2022-08-19T06:20:15.343Z,15.25
2022-08-19T06:22:47.499Z,16.60
2022-08-19T06:25:18.131Z,15.27
2022-08-19T06:28:13.502Z,14.05
2022-08-19T06:30:39.704Z,14.38
2022-08-19T06:33:09.631Z,14.35
2022-08-19T06:35:42.120Z,14.43
2022-08-19T06:38:12.315Z,14.05
2022-08-19T06:40:45.298Z,14.57
2022-08-19T06:43:16.945Z,12.05
2022-08-19T06:45:53.599Z,13.38
2022-08-19T06:48:23.834Z,13.88
2022-08-19T06:50:56.070Z,13.35
2022-08-19T06:53:26.182Z,14.25
2022-08-19T06:56:03.227Z,14.18
2022-08-19T06:58:34.001Z,14.80
2022-08-19T07:01:09.101Z,16.27
2022-08-19T07:03:40.776Z,14.23
2022-08-19T07:06:39.427Z,16.08
2022-08-19T07:09:07.993Z,14.02
2022-08-19T07:11:38.514Z,14.68
2022-08-19T07:14:18.899Z,15.00
2022-08-19T07:16:53.299Z,14.57
2022-08-19T07:19:25.552Z,13.88
2022-08-19T07:21:56.528Z,15.30
2022-08-19T07:24:28.528Z,15.43
2022-08-19T07:27:06.806Z,15.25
2022-08-19T07:29:46.916Z,14.38
2022-08-19T07:32:28.034Z,13.98
2022-08-19T07:34:58.412Z,15.97
2022-08-19T07:37:33.075Z,15.30
2022-08-19T07:40:04.076Z,16.20
2022-08-19T07:42:33.989Z,15.27
2022-08-19T07:45:04.596Z,14.85
2022-08-19T07:47:48.810Z,14.30
2022-08-19T07:50:22.687Z,13.95
2022-08-19T07:52:52.771Z,15.38
2022-08-19T07:55:42.352Z,15.20
2022-08-19T07:58:15.850Z,15.80
2022-08-19T08:00:47.222Z,14.70
2022-08-19T08:03:21.130Z,13.65
2022-08-19T08:06:08.685Z,15.80
2022-08-19T08:09:01.207Z,14.90
2022-08-19T08:11:31.344Z,14.05
2022-08-19T08:14:04.602Z,15.07
2022-08-19T08:16:39.537Z,14.95
2022-08-19T08:19:25.727Z,15.65
2022-08-19T08:21:57.523Z,15.43
2022-08-19T08:24:29.134Z,14.15
2022-08-19T08:27:01.266Z,15.90
2022-08-19T08:29:34.758Z,13.52
2022-08-19T08:32:13.942Z,16.20
2022-08-19T08:34:47.453Z,15.45
2022-08-19T08:37:23.151Z,16.00
2022-08-19T08:39:53.094Z,14.68
2022-08-19T08:42:29.471Z,15.55
2022-08-19T08:45:02.283Z,14.68
2022-08-19T08:47:37.223Z,13.88
2022-08-19T08:50:15.663Z,14.95
2022-08-19T08:52:49.403Z,14.65
2022-08-19T08:57:55.847Z,14.73
2022-08-19T09:00:29.933Z,13.90
2022-08-19T09:03:02.024Z,14.52
2022-08-19T09:05:48.436Z,14.23
2022-08-19T09:08:28.410Z,14.85
2022-08-19T09:10:59.433Z,14.60
2022-08-19T09:13:38.812Z,14.50
2022-08-19T09:16:13.978Z,14.48
2022-08-19T09:18:46.966Z,15.10
2022-08-19T09:21:20.045Z,14.57
2022-08-19T09:23:52.168Z,17.05
2022-08-19T09:26:24.466Z,29.83
2022-08-19T09:29:14.836Z,25.42
2022-08-19T09:31:44.745Z,18.67
2022-08-19T09:34:21.367Z,16.67
2022-08-19T09:36:54.708Z,13.68
2022-08-19T09:39:24.956Z,13.20
2022-08-19T09:42:16.386Z,13.32
2022-08-19T09:44:50.220Z,14.05
2022-08-19T09:47:20.134Z,11.57
2022-08-19T09:49:53.070Z,12.85
2022-08-19T09:52:24.292Z,11.55
2022-08-19T09:54:55.170Z,13.27
2022-08-19T09:57:25.043Z,13.35
2022-08-19T09:59:55.589Z,13.05
2022-08-19T10:02:25.865Z,12.68
2022-08-19T10:05:16.742Z,13.25
2022-08-19T10:07:54.477Z,13.38
2022-08-19T10:10:26.828Z,12.57
2022-08-19T10:12:57.426Z,12.82
2022-08-19T10:15:29.216Z,14.40
2022-08-19T10:18:00.840Z,12.63
2022-08-19T10:20:31.739Z,36.10
2022-08-19T10:23:03.120Z,25.73
2022-08-19T10:25:36.066Z,27.77
2022-08-19T10:28:10.656Z,15.82
2022-08-19T10:30:42.441Z,18.45
2022-08-19T10:33:12.332Z,16.05
2022-08-19T10:35:56.773Z,13.43
2022-08-19T10:38:31.820Z,13.00
2022-08-19T10:41:09.628Z,13.02
2022-08-19T10:43:40.913Z,12.75
2022-08-19T10:46:16.696Z,13.90
2022-08-19T10:48:47.416Z,12.30
2022-08-19T10:51:35.487Z,11.93
2022-08-19T10:54:06.999Z,12.55
2022-08-19T10:56:53.641Z,13.32
2022-08-19T10:59:31.419Z,13.35
2022-08-19T11:02:06.135Z,13.25
2022-08-19T11:04:36.076Z,15.10
2022-08-19T11:07:07.108Z,16.55
2022-08-19T11:09:42.954Z,14.25
2022-08-19T11:12:14.701Z,15.32
2022-08-19T11:14:45.186Z,14.82
2022-08-19T11:17:16.431Z,15.00
2022-08-19T11:19:46.788Z,12.98
2022-08-19T11:22:16.759Z,13.13
2022-08-19T11:24:50.838Z,15.45
2022-08-19T11:27:20.753Z,13.05
2022-08-19T11:29:50.809Z,14.23
2022-08-19T11:32:20.835Z,13.77
2022-08-19T11:34:50.832Z,13.43
2022-08-19T11:37:20.877Z,14.20
2022-08-19T11:39:53.517Z,13.10
2022-08-19T11:42:41.374Z,13.45
2022-08-19T11:45:11.949Z,13.27
2022-08-19T11:47:41.916Z,14.35
2022-08-19T11:50:12.125Z,14.25
2022-08-19T11:52:46.022Z,15.18
2022-08-19T11:55:17.716Z,14.43
2022-08-19T11:57:47.901Z,13.30
2022-08-19T12:00:18.459Z,14.40
2022-08-19T12:02:48.667Z,13.88
2022-08-19T12:05:18.862Z,13.60
2022-08-19T12:07:49.067Z,13.55
2022-08-19T12:10:24.540Z,12.88
2022-08-19T12:12:58.800Z,13.38
2022-08-19T12:15:37.132Z,12.93
2022-08-19T12:18:08.174Z,12.25
2022-08-19T12:20:40.597Z,12.15
2022-08-19T12:23:11.358Z,12.90
2022-08-19T12:25:49.381Z,13.68
2022-08-19T12:28:20.091Z,13.55
2022-08-19T12:30:52.322Z,12.73
2022-08-19T12:33:25.293Z,13.15
2022-08-19T12:35:55.726Z,13.10
2022-08-19T12:38:25.583Z,12.48
2022-08-19T12:41:00.203Z,12.18
2022-08-19T12:43:31.401Z,13.32
2022-08-19T12:46:01.372Z,12.98
2022-08-19T12:48:33.615Z,13.10
2022-08-19T12:51:08.941Z,12.30
2022-08-19T12:53:39.252Z,12.32
2022-08-19T12:56:15.345Z,11.15
2022-08-19T12:58:48.822Z,14.50
2022-08-19T13:01:22.005Z,12.50
2022-08-19T13:03:54.422Z,12.15
2022-08-19T13:06:24.231Z,11.80
2022-08-19T13:08:59.015Z,12.48
2022-08-19T13:11:33.439Z,11.70
2022-08-19T13:14:05.927Z,12.13
2022-08-19T13:16:36.418Z,12.37
2022-08-19T13:19:06.896Z,12.02
2022-08-19T13:21:37.272Z,11.45
2022-08-19T13:24:07.511Z,12.07
2022-08-19T13:26:38.684Z,12.25
2022-08-19T13:29:26.327Z,11.77
2022-08-19T13:32:13.724Z,9.25
2022-08-19T13:34:48.803Z,12.07
2022-08-19T13:37:38.625Z,12.02
2022-08-19T13:40:12.587Z,22.85
2022-08-19T13:42:44.749Z,23.60
2022-08-19T13:45:16.151Z,27.92
2022-08-19T13:47:48.230Z,16.75
2022-08-19T13:50:20.533Z,12.25
2022-08-19T13:52:50.820Z,19.38
2022-08-19T13:55:24.885Z,16.77
2022-08-19T13:57:58.081Z,9.80
2022-08-19T14:00:31.836Z,9.40
2022-08-19T14:03:04.313Z,11.25
2022-08-19T14:05:38.258Z,8.93
2022-08-19T14:08:08.087Z,8.68
2022-08-19T14:10:38.132Z,7.75
2022-08-19T14:13:10.198Z,8.13
2022-08-19T14:15:40.873Z,31.88
2022-08-19T14:18:10.751Z,46.13
2022-08-19T14:20:40.858Z,51.22
2022-08-19T14:23:11.748Z,55.35
2022-08-19T14:25:42.027Z,12.77
2022-08-19T14:28:13.439Z,11.23
2022-08-19T14:30:45.519Z,8.27
2022-08-19T14:33:15.427Z,18.52
2022-08-19T14:35:45.713Z,11.27
2022-08-19T14:38:18.616Z,9.43
2022-08-19T14:40:58.229Z,10.40
2022-08-19T14:43:29.452Z,9.68
2022-08-19T14:45:59.339Z,24.20
2022-08-19T14:48:29.952Z,13.02
2022-08-19T14:50:59.857Z,32.85
2022-08-19T14:53:29.593Z,33.60
2022-08-19T14:55:59.836Z,40.83
2022-08-19T14:58:31.520Z,45.28
2022-08-19T15:01:01.910Z,42.20
2022-08-19T15:03:32.961Z,29.77
2022-08-19T15:06:04.573Z,19.52
2022-08-19T15:08:37.884Z,15.88
2022-08-19T15:11:11.686Z,18.27
2022-08-19T15:13:47.482Z,13.00
2022-08-19T15:16:19.178Z,9.85
2022-08-19T15:18:57.904Z,15.43
2022-08-19T15:21:29.248Z,12.23
2022-08-19T15:24:01.853Z,22.25
2022-08-19T15:26:33.701Z,12.15
2022-08-19T15:29:07.092Z,15.43
2022-08-19T15:31:38.216Z,8.48
2022-08-19T15:34:08.761Z,8.65
2022-08-19T15:36:39.252Z,12.90
2022-08-19T15:39:10.214Z,7.07
2022-08-19T15:41:41.175Z,8.27
2022-08-19T15:44:16.427Z,11.63
2022-08-19T15:46:47.807Z,12.02
2022-08-19T15:49:19.284Z,8.65
2022-08-19T15:51:51.890Z,8.40
2022-08-19T15:54:22.758Z,8.33
2022-08-19T15:57:07.413Z,8.60
2022-08-19T15:59:57.151Z,8.85
2022-08-19T16:02:49.024Z,7.15
2022-08-19T16:05:44.231Z,8.48
2022-08-19T16:08:15.483Z,9.07
2022-08-19T16:10:45.461Z,8.88
2022-08-19T16:13:15.810Z,10.00
2022-08-19T16:15:47.704Z,8.18
2022-08-19T16:18:17.961Z,9.18
2022-08-19T16:20:48.591Z,7.68
2022-08-19T16:23:18.795Z,8.50
2022-08-19T16:25:48.713Z,7.72
2022-08-19T16:28:19.468Z,7.80
2022-08-19T16:30:51.047Z,8.13
2022-08-19T16:33:22.966Z,7.90
2022-08-19T16:36:07.358Z,8.07
2022-08-19T16:38:38.746Z,9.63
2022-08-19T16:41:09.448Z,8.73
2022-08-19T16:43:40.092Z,8.90
2022-08-19T16:46:11.449Z,7.97
2022-08-19T16:48:46.330Z,8.38
2022-08-19T16:51:16.791Z,9.75
2022-08-19T16:53:47.108Z,8.93
2022-08-19T16:56:17.178Z,9.20
2022-08-19T16:58:47.080Z,9.90
2022-08-19T17:01:19.381Z,9.60
2022-08-19T17:03:50.540Z,9.63
2022-08-19T17:06:25.040Z,9.65
2022-08-19T17:09:01.829Z,9.57
2022-08-19T17:11:33.019Z,10.35
2022-08-19T17:14:05.455Z,9.98
2022-08-19T17:16:38.236Z,10.77
2022-08-19T17:19:09.809Z,8.48
2022-08-19T17:21:40.691Z,8.95
2022-08-19T17:24:12.303Z,9.63
2022-08-19T17:26:42.453Z,9.68
2022-08-19T17:29:12.594Z,9.27
2022-08-19T17:31:44.543Z,10.00
2022-08-19T17:34:14.707Z,9.35
2022-08-19T17:36:44.526Z,10.82
2022-08-19T17:39:14.601Z,9.05
2022-08-19T17:41:44.678Z,8.90
2022-08-19T17:44:14.682Z,10.43
2022-08-19T17:46:46.842Z,10.27
2022-08-19T17:49:17.995Z,10.17
2022-08-19T17:51:49.615Z,9.13
2022-08-19T17:54:20.737Z,11.20
2022-08-19T17:56:50.579Z,10.75
2022-08-19T17:59:20.757Z,10.70
2022-08-19T18:01:57.412Z,9.45
2022-08-19T18:04:29.878Z,10.07
2022-08-19T18:07:01.072Z,9.57
2022-08-19T18:09:41.461Z,10.93
2022-08-19T18:12:15.714Z,10.05
2022-08-19T18:14:46.613Z,10.48
2022-08-19T18:17:19.362Z,11.32
2022-08-19T18:19:49.283Z,11.68
2022-08-19T18:22:26.750Z,10.40
2022-08-19T18:24:57.532Z,11.15
2022-08-19T18:27:28.849Z,11.07
2022-08-19T18:29:59.798Z,10.15
2022-08-19T18:32:33.461Z,10.02
2022-08-19T18:35:06.421Z,9.65
2022-08-19T18:37:36.696Z,9.50
2022-08-19T18:40:25.221Z,8.68
2022-08-19T18:43:13.046Z,9.82
2022-08-19T18:46:02.526Z,9.05
2022-08-19T18:48:51.080Z,8.75
2022-08-19T18:51:23.285Z,8.45
2022-08-19T18:53:57.324Z,8.90
2022-08-19T18:56:31.208Z,8.40
2022-08-19T18:59:01.920Z,8.98
2022-08-19T19:01:35.544Z,8.45
2022-08-19T19:04:10.667Z,8.55
2022-08-19T19:06:43.443Z,8.45
2022-08-19T19:09:16.442Z,8.93
2022-08-19T19:14:45.651Z,8.27
2022-08-19T19:17:14.167Z,8.70
2022-08-19T19:19:45.895Z,8.60
2022-08-19T19:22:20.207Z,9.65
2022-08-19T19:24:50.826Z,10.23
2022-08-19T19:27:21.457Z,9.88
2022-08-19T19:29:52.811Z,10.38
2022-08-19T19:32:26.158Z,9.73
2022-08-19T19:34:57.933Z,9.45
2022-08-19T19:37:28.960Z,9.17
2022-08-19T19:39:58.800Z,10.25
2022-08-19T19:42:28.856Z,9.55
2022-08-19T19:45:00.439Z,9.68
2022-08-19T19:47:31.046Z,9.85
2022-08-19T19:50:18.102Z,9.90
2022-08-19T19:52:48.123Z,9.95
2022-08-19T19:55:19.096Z,9.35
2022-08-19T19:57:49.836Z,10.95
2022-08-19T20:00:20.987Z,9.35
2022-08-19T20:02:51.407Z,9.85
2022-08-19T20:05:24.169Z,9.63
2022-08-19T20:08:12.426Z,10.67
2022-08-19T20:10:44.014Z,10.98
2022-08-19T20:13:15.585Z,10.93
2022-08-19T20:15:46.021Z,9.68
2022-08-19T20:18:15.944Z,9.45
2022-08-19T20:20:50.175Z,9.23
2022-08-19T20:23:20.623Z,9.05
2022-08-19T20:25:51.915Z,9.13
2022-08-19T20:28:23.050Z,9.15
2022-08-19T20:30:53.218Z,9.00
2022-08-19T20:33:23.228Z,9.43
2022-08-19T20:35:54.593Z,8.20
2022-08-19T20:38:24.564Z,9.00
2022-08-19T20:40:54.657Z,9.13
2022-08-19T20:43:25.772Z,9.55
2022-08-19T20:45:55.913Z,9.43
2022-08-19T20:48:25.929Z,9.00
2022-08-19T20:50:58.848Z,9.50
2022-08-19T20:53:28.914Z,9.68
2022-08-19T20:56:00.069Z,10.25
2022-08-19T20:58:30.342Z,9.23
2022-08-19T21:01:02.780Z,9.65
2022-08-19T21:03:42.901Z,9.43
2022-08-19T21:06:15.584Z,9.57
2022-08-19T21:08:45.531Z,9.27
2022-08-19T21:11:20.592Z,9.82
2022-08-19T21:13:51.251Z,10.05
2022-08-19T21:16:21.679Z,9.57
2022-08-19T21:18:51.587Z,11.30
2022-08-19T21:21:22.875Z,10.15
2022-08-19T21:23:52.996Z,9.90
2022-08-19T21:26:24.424Z,9.23
2022-08-19T21:28:54.656Z,10.52
2022-08-19T21:31:24.658Z,11.02
2022-08-19T21:33:54.828Z,9.38
2022-08-19T21:36:26.182Z,9.77
2022-08-19T21:38:56.448Z,9.50
2022-08-19T21:41:26.385Z,8.82
2022-08-19T21:43:56.380Z,10.07
2022-08-19T21:46:26.289Z,9.82
2022-08-19T21:48:56.490Z,9.68
2022-08-19T21:51:27.932Z,9.32
2022-08-19T21:53:58.182Z,10.40
2022-08-19T21:56:28.096Z,10.32
2022-08-19T21:58:59.244Z,10.13
2022-08-19T22:01:29.155Z,10.73
2022-08-19T22:03:59.058Z,10.10
2022-08-19T22:06:30.410Z,10.10
2022-08-19T22:09:00.499Z,10.63
2022-08-19T22:11:31.854Z,10.18
2022-08-19T22:14:04.319Z,9.57
2022-08-19T22:16:34.686Z,10.30
2022-08-19T22:19:04.922Z,10.82
2022-08-19T22:21:40.741Z,10.43
2022-08-19T22:24:11.281Z,9.45
2022-08-19T22:26:41.173Z,10.05
2022-08-19T22:29:15.652Z,10.63
2022-08-19T22:31:54.319Z,9.52
2022-08-19T22:34:25.948Z,11.15
2022-08-19T22:36:57.439Z,9.95
2022-08-19T22:39:27.335Z,10.95
2022-08-19T22:41:57.196Z,10.90
2022-08-19T22:44:27.787Z,11.70
2022-08-19T22:46:57.897Z,10.35
2022-08-19T22:49:27.841Z,10.77
2022-08-19T22:52:18.399Z,9.20
2022-08-19T22:54:48.755Z,9.90
2022-08-19T22:57:20.390Z,11.32
2022-08-19T22:59:52.438Z,10.57
2022-08-19T23:02:24.814Z,10.52
2022-08-19T23:04:55.014Z,11.18
2022-08-19T23:07:26.269Z,10.00
2022-08-19T23:09:56.692Z,10.57
2022-08-19T23:12:30.622Z,10.63
2022-08-19T23:15:03.073Z,10.10
2022-08-19T23:17:33.685Z,10.77
2022-08-19T23:20:05.027Z,10.10
2022-08-19T23:22:39.423Z,10.63
2022-08-19T23:25:14.173Z,10.50
2022-08-19T23:28:01.485Z,9.98
2022-08-19T23:30:33.510Z,10.35
2022-08-19T23:33:12.321Z,10.10
2022-08-19T23:35:43.019Z,9.93
2022-08-19T23:38:14.291Z,10.25
2022-08-19T23:40:44.489Z,9.88
2022-08-19T23:43:20.419Z,9.60
2022-08-19T23:45:57.424Z,10.43
2022-08-19T23:48:28.516Z,10.20
2022-08-19T23:50:58.731Z,9.73
2022-08-19T23:53:30.326Z,10.65
2022-08-19T23:56:00.788Z,10.88
2022-08-19T23:58:31.956Z,9.57
